Главная страница
METAR-TAF:

METAR-TAF

Аэропорты :

Винница, Украина

широта: 49-14-23N, долгота: 028-36-50E, высота над уровнем моря: 974 м

Текущие метеонаблюдения

Эта сводка был подготовлена 19 минут назад, в 01:30 UTC
Ветер 6 Узел от западный-юго-западный
Температура 7°C
Влажность 76%
Давление 1020 hPa
Видимость 10 км и более
Нет облачности ниже 1500 м, и нет кучево-дождевой облачности

METAR: UKWW 210130Z 24003MPS CAVOK 07/03 Q1020 NOSIG

Время: 04:49 (01:49 UTC)

Прогноз

Эта сводка был подготовлена 8 часа и 39 минут назад, в 17:10 UTC
Прогноз действительный с 20-го 18 UTC до 21-го 03 UTC
Ветер 8 Узел от северно-северо-западный с порывами до 17 Узел
Видимость 10 км и более
Отдельные облака на высоте 2000 фута

TAF: UKWW 201710Z 2018/2103 33004G09MPS 9999 SCT020

Метеонаблюдения и прогнозы для более 4000 аэропортов (сводки METAR и TAF).

Имеющиеся станции представлены на карте желтыми и красными точками.

Чтобы увидеть название станции, наведите на нее мышь.

Затем щелкните, чтобы увидеть метеонаблюдения и метеопрогнозы.

Управление картой: чтобы увеличить масштаб, щелкните зеленые кнопки с черным крестиком; чтобы уменьшить масштаб, щелкните зеленую кнопку с тире; для просмотра соседних карт щелкайте зеленые стрелки.


METAR-TAF: